Time;durP1;ratioP1;P1;durP2;ratioP2;P2;SDS_P1;SDS_P2;PMS_P1;PMS_P2;Temp;Humidity;BMP_temperature;BMP_pressure;BME280_temperature;BME280_humidity;BME280_pressure;Samples;Min_cycle;Max_cycle;Signal;HPM_P1;HPM_P2
2023/10/10 00:00:23;;;;;;;;;;;;;;;;;;2082293;28;19917;-81
2023/10/10 00:01:44;;;;;;;;;;;;;;;;;;2076464;28;20331;-82
2023/10/10 00:03:05;;;;;;;;;;;;;;;;;;2072416;28;19987;-82
2023/10/10 00:04:27;;;;;;;;;;;;;;;;;;2073452;28;19921;-82
2023/10/10 00:05:46;;;;;;;;;;;;;;;;;;2080010;28;19909;-81
2023/10/10 00:07:07;;;;;;;;;;;;;;;;;;2074573;28;19905;-82
2023/10/10 00:08:43;;;;;;;;;;;;;;;;;;2081280;28;19905;-82
2023/10/10 00:10:03;;;;;;;;;;;;;;;;;;2077357;28;20056;-82
2023/10/10 00:11:22;;;;;;;;;;;;;;;;;;2070171;28;20024;-82
2023/10/10 00:12:41;;;;;;;;;;;;;;;;;;2071468;28;19996;-80
2023/10/10 00:14:05;;;;;;;;;;;;;;;;;;2070944;28;19913;-82
2023/10/10 00:15:32;;;;;;;;;;;;;;;;;;2072406;28;19944;-82
2023/10/10 00:16:54;;;;;;;;;;;;;;;;;;2079759;28;19913;-82
2023/10/10 00:18:13;;;;;;;;;;;;;;;;;;2082173;28;19909;-82
2023/10/10 00:19:51;;;;;;;;;;;;;;;;;;2079800;28;19909;-82
2023/10/10 00:21:11;;;;;;;;;;;;;;;;;;2074756;28;20289;-82
2023/10/10 00:22:35;;;;;;;;;;;;;;;;;;2069871;28;19996;-82
2023/10/10 00:23:55;;;;;;;;;;;;;;;;;;2071186;28;19909;-81
2023/10/10 00:25:23;;;;;;;;;;;;;;;;;;2079972;28;20259;-82
2023/10/10 00:26:42;;;;;;;;;;;;;;;;;;2080650;28;19905;-81
2023/10/10 00:28:06;;;;;;;;;;;;;;;;;;2080155;28;22956;-80
2023/10/10 00:29:26;;;;;;;;;;;;;;;;;;2079312;28;19916;-82
2023/10/10 00:30:45;;;;;;;;;;;;;;;;;;2074675;28;19951;-82
2023/10/10 00:32:09;;;;;;;;;;;;;;;;;;2073244;28;19909;-82
2023/10/10 00:33:31;;;;;;;;;;;;;;;;;;2071417;28;20387;-83
2023/10/10 00:34:50;;;;;;;;;;;;;;;;;;2076843;28;19904;-82
2023/10/10 00:36:20;;;;;;;;;;;;;;;;;;2073621;28;19910;-82
2023/10/10 00:37:39;;;;;;;;;;;;;;;;;;2075617;28;20386;-81
2023/10/10 00:39:20;;;;;;;;;;;;;;;;;;2081144;28;19909;-81
2023/10/10 00:40:39;;;;;;;;;;;;;;;;;;2076410;28;19909;-82
2023/10/10 00:42:03;;;;;;;;;;;;;;;;;;2080615;28;19905;-81
2023/10/10 00:43:24;;;;;;;;;;;;;;;;;;2080599;28;19909;-81
2023/10/10 00:44:44;;;;;;;;;;;;;;;;;;2077793;28;19913;-82
2023/10/10 00:46:04;;;;;;;;;;;;;;;;;;2073536;28;20390;-81
2023/10/10 00:47:25;;;;;;;;;;;;;;;;;;2076785;28;19909;-82
2023/10/10 00:48:44;;;;;;;;;;;;;;;;;;2076994;28;20388;-82
2023/10/10 00:50:03;;;;;;;;;;;;;;;;;;2076485;28;20366;-81
2023/10/10 00:51:23;;;;;;;;;;;;;;;;;;2080151;28;20647;-81
2023/10/10 00:52:41;;;;;;;;;;;;;;;;;;2085033;28;19921;-81
2023/10/10 00:54:25;;;;;;;;;;;;;;;;;;2086669;28;19913;-79
2023/10/10 00:55:55;;;;;;;;;;;;;;;;;;2089528;28;19913;-81
2023/10/10 00:57:15;;;;;;;;;;;;;;;;;;2083495;28;19893;-81
2023/10/10 00:58:40;;;;;;;;;;;;;;;;;;2085829;28;19913;-81
2023/10/10 00:59:59;;;;;;;;;;;;;;;;;;2087616;28;20279;-83
2023/10/10 01:01:19;;;;;;;;;;;;;;;;;;2086294;28;19936;-81
2023/10/10 01:02:38;;;;;;;;;;;;;;;;;;2077421;28;19917;-81
2023/10/10 01:03:57;;;;;;;;;;;;;;;;;;2073782;28;19913;-81
2023/10/10 01:05:23;;;;;;;;;;;;;;;;;;2081105;28;19905;-81
2023/10/10 01:06:41;;;;;;;;;;;;;;;;;;2080445;28;19905;-81
2023/10/10 01:08:01;;;;;;;;;;;;;;;;;;2076080;28;19923;-82
2023/10/10 01:09:20;;;;;;;;;;;;;;;;;;2074734;28;19905;-82
2023/10/10 01:11:03;;;;;;;;;;;;;;;;;;2078603;28;19909;-82
2023/10/10 01:12:22;;;;;;;;;;;;;;;;;;2081203;28;20401;-82
2023/10/10 01:13:41;;;;;;;;;;;;;;;;;;2080661;28;19905;-81
2023/10/10 01:15:07;;;;;;;;;;;;;;;;;;2080415;28;20442;-82
2023/10/10 01:16:33;;;;;;;;;;;;;;;;;;2079833;28;19913;-82
2023/10/10 01:17:54;;;;;;;;;;;;;;;;;;2074816;28;19909;-81
2023/10/10 01:19:14;;;;;;;;;;;;;;;;;;2071364;28;19913;-81
2023/10/10 01:20:45;;;;;;;;;;;;;;;;;;2072444;28;19917;-81
2023/10/10 01:22:22;;;;;;;;;;;;;;;;;;2078417;28;19913;-82
2023/10/10 01:23:42;;;;;;;;;;;;;;;;;;2073578;28;19913;-82
2023/10/10 01:25:05;;;;;;;;;;;;;;;;;;2072022;28;19917;-82
2023/10/10 01:26:28;;;;;;;;;;;;;;;;;;2078930;28;19904;-82
2023/10/10 01:27:47;;;;;;;;;;;;;;;;;;2079446;28;19905;-82
2023/10/10 01:29:25;;;;;;;;;;;;;;;;;;2075176;28;19905;-82
2023/10/10 01:30:56;;;;;;;;;;;;;;;;;;2075614;28;19913;-80
2023/10/10 01:32:17;;;;;;;;;;;;;;;;;;2069493;28;19963;-82
2023/10/10 01:33:36;;;;;;;;;;;;;;;;;;2069211;28;19905;-81
2023/10/10 01:34:55;;;;;;;;;;;;;;;;;;2074709;28;20338;-81
2023/10/10 01:36:22;;;;;;;;;;;;;;;;;;2076763;28;19905;-81
2023/10/10 01:37:41;;;;;;;;;;;;;;;;;;2076429;28;19961;-82
2023/10/10 01:39:00;;;;;;;;;;;;;;;;;;2071336;28;19909;-81
2023/10/10 01:40:18;;;;;;;;;;;;;;;;;;2072581;28;19905;-81
2023/10/10 01:41:40;;;;;;;;;;;;;;;;;;2069311;28;20294;-81
2023/10/10 01:42:59;;;;;;;;;;;;;;;;;;2069833;28;19913;-82
2023/10/10 01:44:24;;;;;;;;;;;;;;;;;;2075790;28;19921;-82
2023/10/10 01:45:43;;;;;;;;;;;;;;;;;;2075163;28;19909;-82
2023/10/10 01:47:03;;;;;;;;;;;;;;;;;;2077878;28;19912;-81
2023/10/10 01:48:23;;;;;;;;;;;;;;;;;;2080390;28;19905;-82
2023/10/10 01:49:43;;;;;;;;;;;;;;;;;;2079325;28;20334;-82
2023/10/10 01:51:02;;;;;;;;;;;;;;;;;;2073548;28;20453;-82
2023/10/10 01:52:22;;;;;;;;;;;;;;;;;;2076191;28;20071;-82
2023/10/10 01:53:41;;;;;;;;;;;;;;;;;;2071547;28;19909;-81
2023/10/10 01:55:00;;;;;;;;;;;;;;;;;;2076991;28;19917;-81
2023/10/10 01:56:19;;;;;;;;;;;;;;;;;;2074005;28;19905;-82
2023/10/10 01:57:38;;;;;;;;;;;;;;;;;;2076442;28;20851;-82
2023/10/10 01:58:57;;;;;;;;;;;;;;;;;;2075432;28;20918;-82
2023/10/10 02:00:26;;;;;;;;;;;;;;;;;;2076567;28;19913;-81
2023/10/10 02:01:45;;;;;;;;;;;;;;;;;;2073694;28;19921;-82
2023/10/10 02:03:04;;;;;;;;;;;;;;;;;;2078442;28;19920;-82
2023/10/10 02:04:27;;;;;;;;;;;;;;;;;;2075567;28;20286;-82
2023/10/10 02:05:50;;;;;;;;;;;;;;;;;;2080493;28;19991;-82
2023/10/10 02:07:42;;;;;;;;;;;;;;;;;;2080626;28;19913;-82
2023/10/10 02:08:56;;;;;;;;;;;;;;;;;;2080510;28;19996;-81
2023/10/10 02:10:18;;;;;;;;;;;;;;;;;;2078800;28;19909;-81
2023/10/10 02:11:38;;;;;;;;;;;;;;;;;;2079735;28;20319;-82
2023/10/10 02:12:59;;;;;;;;;;;;;;;;;;2076056;28;19944;-82
2023/10/10 02:14:19;;;;;;;;;;;;;;;;;;2071536;28;19905;-82
2023/10/10 02:15:39;;;;;;;;;;;;;;;;;;2078433;28;19905;-82
2023/10/10 02:17:06;;;;;;;;;;;;;;;;;;2075160;28;19905;-82
2023/10/10 02:18:59;;;;;;;;;;;;;;;;;;2079455;28;19905;-82
2023/10/10 02:20:33;;;;;;;;;;;;;;;;;;2079247;28;19913;-82
2023/10/10 02:22:12;;;;;;;;;;;;;;;;;;2079339;28;19955;-82
2023/10/10 02:23:31;;;;;;;;;;;;;;;;;;2072117;28;19913;-82
2023/10/10 02:25:08;;;;;;;;;;;;;;;;;;2076455;28;19921;-82
2023/10/10 02:26:36;;;;;;;;;;;;;;;;;;2075384;28;19909;-82
2023/10/10 02:27:56;;;;;;;;;;;;;;;;;;2070717;28;19905;-82
2023/10/10 02:29:34;;;;;;;;;;;;;;;;;;2078256;28;19909;-83
2023/10/10 02:30:53;;;;;;;;;;;;;;;;;;2079868;28;19917;-82
2023/10/10 02:32:13;;;;;;;;;;;;;;;;;;2080653;28;19909;-82
2023/10/10 02:33:34;;;;;;;;;;;;;;;;;;2079308;28;19905;-82
2023/10/10 02:36:30;;;;;;;;;;;;;;;;;;2081634;28;19905;-81
2023/10/10 02:37:54;;;;;;;;;;;;;;;;;;2080114;28;19905;-81
2023/10/10 02:40:42;;;;;;;;;;;;;;;;;;2077079;28;20799;-82
2023/10/10 02:42:04;;;;;;;;;;;;;;;;;;2080169;28;19913;-82
2023/10/10 02:43:45;;;;;;;;;;;;;;;;;;2074472;28;19909;-82
2023/10/10 02:45:06;;;;;;;;;;;;;;;;;;2072605;28;19921;-81
2023/10/10 02:46:34;;;;;;;;;;;;;;;;;;2078981;28;19905;-82
2023/10/10 02:47:53;;;;;;;;;;;;;;;;;;2081034;28;19909;-81
2023/10/10 02:49:13;;;;;;;;;;;;;;;;;;2076949;28;20294;-82
2023/10/10 02:50:41;;;;;;;;;;;;;;;;;;2070057;28;19909;-81
2023/10/10 02:52:06;;;;;;;;;;;;;;;;;;2078446;28;19913;-82
2023/10/10 02:53:25;;;;;;;;;;;;;;;;;;2075061;28;20375;-81
2023/10/10 02:54:53;;;;;;;;;;;;;;;;;;2072337;28;19910;-81
2023/10/10 02:56:12;;;;;;;;;;;;;;;;;;2080654;28;19988;-82
2023/10/10 02:57:39;;;;;;;;;;;;;;;;;;2082548;28;19991;-81
2023/10/10 02:58:57;;;;;;;;;;;;;;;;;;2075699;28;19905;-82
2023/10/10 03:01:57;;;;;;;;;;;;;;;;;;2081807;28;19909;-82
2023/10/10 03:03:18;;;;;;;;;;;;;;;;;;2076604;28;19905;-82
2023/10/10 03:05:05;;;;;;;;;;;;;;;;;;2078106;28;20566;-82
2023/10/10 03:06:28;;;;;;;;;;;;;;;;;;2082486;28;19908;-81
2023/10/10 03:07:53;;;;;;;;;;;;;;;;;;2083104;28;19912;-82
2023/10/10 03:09:28;;;;;;;;;;;;;;;;;;2075715;28;19913;-82
2023/10/10 03:10:53;;;;;;;;;;;;;;;;;;2077688;28;20008;-82
2023/10/10 03:12:17;;;;;;;;;;;;;;;;;;2079284;28;19913;-81
2023/10/10 03:13:47;;;;;;;;;;;;;;;;;;2083275;28;19905;-82
2023/10/10 03:15:14;;;;;;;;;;;;;;;;;;2080802;28;19904;-82
2023/10/10 03:16:44;;;;;;;;;;;;;;;;;;2077681;28;19905;-83
2023/10/10 03:19:32;;;;;;;;;;;;;;;;;;2081481;28;19909;-81
2023/10/10 03:21:07;;;;;;;;;;;;;;;;;;2082087;28;19921;-83
2023/10/10 03:22:46;;;;;;;;;;;;;;;;;;2081855;28;19988;-82
2023/10/10 03:24:15;;;;;;;;;;;;;;;;;;2080061;28;20004;-82
2023/10/10 03:25:38;;;;;;;;;;;;;;;;;;2076663;28;19909;-82
2023/10/10 03:27:11;;;;;;;;;;;;;;;;;;2075578;28;19909;-82
2023/10/10 03:28:32;;;;;;;;;;;;;;;;;;2081221;28;19912;-82
2023/10/10 03:30:15;;;;;;;;;;;;;;;;;;2073548;28;20243;-81
2023/10/10 03:31:42;;;;;;;;;;;;;;;;;;2081614;28;20362;-81
2023/10/10 03:33:11;;;;;;;;;;;;;;;;;;2071069;28;19917;-81
2023/10/10 03:34:43;;;;;;;;;;;;;;;;;;2072906;28;19909;-82
2023/10/10 03:36:45;;;;;;;;;;;;;;;;;;2077369;28;19995;-82
2023/10/10 03:37:54;;;;;;;;;;;;;;;;;;2079846;28;19913;-81
2023/10/10 03:39:41;;;;;;;;;;;;;;;;;;2076661;28;19917;-82
2023/10/10 03:41:24;;;;;;;;;;;;;;;;;;2081925;28;20072;-82
2023/10/10 05:24:20;;;;;;;;;;;;;;;;;;2080859;28;20361;-79
2023/10/10 05:25:41;;;;;;;;;;;;;;;;;;2073806;28;19992;-81
2023/10/10 05:27:02;;;;;;;;;;;;;;;;;;2073323;28;19905;-82
2023/10/10 05:28:22;;;;;;;;;;;;;;;;;;2079378;28;19909;-82
2023/10/10 05:29:43;;;;;;;;;;;;;;;;;;2076054;28;19991;-82
2023/10/10 05:31:02;;;;;;;;;;;;;;;;;;2069978;28;19952;-85
2023/10/10 05:32:23;;;;;;;;;;;;;;;;;;2077964;28;20012;-84
2023/10/10 05:33:42;;;;;;;;;;;;;;;;;;2074432;28;19909;-84
2023/10/10 05:35:01;;;;;;;;;;;;;;;;;;2078628;28;19917;-83
2023/10/10 05:36:28;;;;;;;;;;;;;;;;;;2078755;28;19909;-82
2023/10/10 05:37:46;;;;;;;;;;;;;;;;;;2074145;28;19983;-83
2023/10/10 05:39:06;;;;;;;;;;;;;;;;;;2079157;28;19905;-82
2023/10/10 05:40:24;;;;;;;;;;;;;;;;;;2080359;28;20354;-83
2023/10/10 05:41:44;;;;;;;;;;;;;;;;;;2074890;28;20518;-83
2023/10/10 05:43:03;;;;;;;;;;;;;;;;;;2072549;28;19909;-83
2023/10/10 05:44:21;;;;;;;;;;;;;;;;;;2076339;28;19944;-83
2023/10/10 05:45:40;;;;;;;;;;;;;;;;;;2077538;28;20473;-83
2023/10/10 05:46:59;;;;;;;;;;;;;;;;;;2080773;28;20608;-82
2023/10/10 05:48:18;;;;;;;;;;;;;;;;;;2075851;28;19905;-85
2023/10/10 05:49:37;;;;;;;;;;;;;;;;;;2078766;28;19991;-82
2023/10/10 05:50:57;;;;;;;;;;;;;;;;;;2071591;28;19909;-82
2023/10/10 05:52:17;;;;;;;;;;;;;;;;;;2067675;28;19910;-82
2023/10/10 05:53:36;;;;;;;;;;;;;;;;;;2077135;28;19985;-82
2023/10/10 05:54:55;;;;;;;;;;;;;;;;;;2079819;28;19905;-80
2023/10/10 05:56:15;;;;;;;;;;;;;;;;;;2072760;28;20485;-82
2023/10/10 05:57:36;;;;;;;;;;;;;;;;;;2072152;28;19906;-82
2023/10/10 05:58:56;;;;;;;;;;;;;;;;;;2078629;28;19908;-83
2023/10/10 06:00:15;;;;;;;;;;;;;;;;;;2074019;28;19958;-84
2023/10/10 06:01:36;;;;;;;;;;;;;;;;;;2073380;28;20458;-85
2023/10/10 06:02:54;;;;;;;;;;;;;;;;;;2078003;28;20012;-84
2023/10/10 06:04:13;;;;;;;;;;;;;;;;;;2074618;28;19933;-83
2023/10/10 06:05:35;;;;;;;;;;;;;;;;;;2078583;28;19905;-82
2023/10/10 06:06:54;;;;;;;;;;;;;;;;;;2073933;28;19996;-83
2023/10/10 06:08:13;;;;;;;;;;;;;;;;;;2075079;28;19913;-83
2023/10/10 06:09:34;;;;;;;;;;;;;;;;;;2076146;28;19905;-83
2023/10/10 06:10:53;;;;;;;;;;;;;;;;;;2080120;28;19912;-84
2023/10/10 06:12:21;;;;;;;;;;;;;;;;;;2074041;28;19913;-82
2023/10/10 06:13:40;;;;;;;;;;;;;;;;;;2073309;28;19910;-83
2023/10/10 06:15:05;;;;;;;;;;;;;;;;;;2069471;28;19909;-83
2023/10/10 06:16:24;;;;;;;;;;;;;;;;;;2079873;28;20386;-82
2023/10/10 06:17:42;;;;;;;;;;;;;;;;;;2071431;28;19909;-83
2023/10/10 06:19:01;;;;;;;;;;;;;;;;;;2082325;28;19913;-84
2023/10/10 06:20:26;;;;;;;;;;;;;;;;;;2075644;28;19918;-83
2023/10/10 06:21:45;;;;;;;;;;;;;;;;;;2082007;28;19913;-83
2023/10/10 06:23:06;;;;;;;;;;;;;;;;;;2074002;28;19905;-84
2023/10/10 06:24:26;;;;;;;;;;;;;;;;;;2077745;28;19913;-85
2023/10/10 06:25:45;;;;;;;;;;;;;;;;;;2074829;28;20400;-84
2023/10/10 06:27:04;;;;;;;;;;;;;;;;;;2071232;28;19909;-84
2023/10/10 06:28:23;;;;;;;;;;;;;;;;;;2078358;28;20313;-84
2023/10/10 06:29:41;;;;;;;;;;;;;;;;;;2082156;28;19925;-84
2023/10/10 06:31:00;;;;;;;;;;;;;;;;;;2076035;28;19999;-84
2023/10/10 06:32:20;;;;;;;;;;;;;;;;;;2071731;28;19968;-83
2023/10/10 06:33:42;;;;;;;;;;;;;;;;;;2077267;28;19905;-85
2023/10/10 06:35:26;;;;;;;;;;;;;;;;;;2075505;28;19916;-84
2023/10/10 06:36:47;;;;;;;;;;;;;;;;;;2079888;28;19909;-84
2023/10/10 06:38:10;;;;;;;;;;;;;;;;;;2072431;28;20347;-84
2023/10/10 06:39:35;;;;;;;;;;;;;;;;;;2071819;28;19953;-85
2023/10/10 06:40:55;;;;;;;;;;;;;;;;;;2075702;28;19906;-84
2023/10/10 06:42:27;;;;;;;;;;;;;;;;;;2079222;28;19913;-82
2023/10/10 06:43:48;;;;;;;;;;;;;;;;;;2079819;28;19909;-86
2023/10/10 06:45:08;;;;;;;;;;;;;;;;;;2074681;28;19996;-83
2023/10/10 06:46:32;;;;;;;;;;;;;;;;;;2075259;28;19909;-84
2023/10/10 06:47:51;;;;;;;;;;;;;;;;;;2076494;28;19905;-83
2023/10/10 06:49:12;;;;;;;;;;;;;;;;;;2072989;28;19913;-84
2023/10/10 06:50:38;;;;;;;;;;;;;;;;;;2071754;28;19905;-85
2023/10/10 06:51:59;;;;;;;;;;;;;;;;;;2071546;28;20009;-82
2023/10/10 06:53:36;;;;;;;;;;;;;;;;;;2076661;28;19909;-85
2023/10/10 06:54:55;;;;;;;;;;;;;;;;;;2076503;28;19913;-84
2023/10/10 06:56:43;;;;;;;;;;;;;;;;;;2075462;28;19909;-85
2023/10/10 06:57:59;;;;;;;;;;;;;;;;;;2080272;28;19913;-84
2023/10/10 06:59:20;;;;;;;;;;;;;;;;;;2074285;28;20838;-84
2023/10/10 07:00:42;;;;;;;;;;;;;;;;;;2074324;28;19928;-82
2023/10/10 07:02:21;;;;;;;;;;;;;;;;;;2080074;28;19904;-82
2023/10/10 07:03:46;;;;;;;;;;;;;;;;;;2079910;28;20293;-82
2023/10/10 07:05:07;;;;;;;;;;;;;;;;;;2074702;28;19909;-81
2023/10/10 07:06:28;;;;;;;;;;;;;;;;;;2077405;28;19909;-80
2023/10/10 07:07:57;;;;;;;;;;;;;;;;;;2076768;28;19905;-82
2023/10/10 07:09:29;;;;;;;;;;;;;;;;;;2076045;28;19909;-82
2023/10/10 07:10:48;;;;;;;;;;;;;;;;;;2083111;28;20429;-83
2023/10/10 07:12:10;;;;;;;;;;;;;;;;;;2074736;28;19941;-84
2023/10/10 07:13:29;;;;;;;;;;;;;;;;;;2072017;28;19910;-84
2023/10/10 07:14:53;;;;;;;;;;;;;;;;;;2076809;28;19905;-85
2023/10/10 07:16:16;;;;;;;;;;;;;;;;;;2074641;28;19914;-83
2023/10/10 07:17:38;;;;;;;;;;;;;;;;;;2071676;28;19948;-81
2023/10/10 07:18:58;;;;;;;;;;;;;;;;;;2071749;28;19906;-79
2023/10/10 07:21:36;;;;;;;;;;;;;;;;;;2077349;28;19913;-79
2023/10/10 07:22:59;;;;;;;;;;;;;;;;;;2081171;28;19905;-81
2023/10/10 07:24:18;;;;;;;;;;;;;;;;;;2073779;28;19909;-81
2023/10/10 07:25:43;;;;;;;;;;;;;;;;;;2071060;28;19909;-81
2023/10/10 07:27:11;;;;;;;;;;;;;;;;;;2078223;28;19909;-80
2023/10/10 07:28:29;;;;;;;;;;;;;;;;;;2079749;28;19906;-82
2023/10/10 07:31:07;;;;;;;;;;;;;;;;;;2079280;28;19908;-81
2023/10/10 07:32:29;;;;;;;;;;;;;;;;;;2081349;28;19905;-81
2023/10/10 07:34:34;;;;;;;;;;;;;;;;;;2074174;28;19929;-81
2023/10/10 07:35:36;;;;;;;;;;;;;;;;;;2079608;28;19909;-81
2023/10/10 07:36:55;;;;;;;;;;;;;;;;;;2077223;28;19987;-80
2023/10/10 07:38:15;;;;;;;;;;;;;;;;;;2079454;28;19914;-81
2023/10/10 07:39:36;;;;;;;;;;;;;;;;;;2075862;28;19905;-81
2023/10/10 07:40:55;;;;;;;;;;;;;;;;;;2072421;28;19913;-81
2023/10/10 07:42:14;;;;;;;;;;;;;;;;;;2073876;28;19937;-81
2023/10/10 07:43:34;;;;;;;;;;;;;;;;;;2071852;28;19905;-81
2023/10/10 07:44:54;;;;;;;;;;;;;;;;;;2073328;28;20223;-81
2023/10/10 07:46:22;;;;;;;;;;;;;;;;;;2075149;28;20282;-81
2023/10/10 07:49:23;;;;;;;;;;;;;;;;;;2071129;28;19906;-82
2023/10/10 07:50:48;;;;;;;;;;;;;;;;;;2077389;28;19909;-81
2023/10/10 07:52:16;;;;;;;;;;;;;;;;;;2074469;28;19909;-81
2023/10/10 07:53:35;;;;;;;;;;;;;;;;;;2074507;28;19913;-82
2023/10/10 07:55:02;;;;;;;;;;;;;;;;;;2074880;28;20479;-80
2023/10/10 07:56:21;;;;;;;;;;;;;;;;;;2085498;28;19995;-81
2023/10/10 07:59:36;;;;;;;;;;;;;;;;;;2080694;28;19961;-82
2023/10/10 08:01:08;;;;;;;;;;;;;;;;;;2088834;28;19901;-82
2023/10/10 08:02:34;;;;;;;;;;;;;;;;;;2085767;28;19940;-81
2023/10/10 08:03:53;;;;;;;;;;;;;;;;;;2079476;28;19905;-82
2023/10/10 08:05:13;;;;;;;;;;;;;;;;;;2084918;28;19909;-81
2023/10/10 08:06:33;;;;;;;;;;;;;;;;;;2088534;28;19968;-81
2023/10/10 08:07:53;;;;;;;;;;;;;;;;;;2078311;28;20389;-81
2023/10/10 08:10:43;;;;;;;;;;;;;;;;;;2083194;28;19909;-81
2023/10/10 08:12:04;;;;;;;;;;;;;;;;;;2077437;28;20384;-80
2023/10/10 08:13:28;;;;;;;;;;;;;;;;;;2080528;28;19908;-80
2023/10/10 08:14:49;;;;;;;;;;;;;;;;;;2076422;28;19909;-80
2023/10/10 08:16:07;;;;;;;;;;;;;;;;;;2073056;28;19910;-81
2023/10/10 08:17:29;;;;;;;;;;;;;;;;;;2073267;28;20374;-79
2023/10/10 08:20:31;;;;;;;;;;;;;;;;;;2079749;28;20011;-80
2023/10/10 08:21:51;;;;;;;;;;;;;;;;;;2080283;28;19996;-80
2023/10/10 08:23:10;;;;;;;;;;;;;;;;;;2075664;28;19913;-80
2023/10/10 08:24:29;;;;;;;;;;;;;;;;;;2078475;28;19912;-81
2023/10/10 08:25:48;;;;;;;;;;;;;;;;;;2081594;28;20350;-80
2023/10/10 08:27:10;;;;;;;;;;;;;;;;;;2081811;28;19905;-79
2023/10/10 08:28:29;;;;;;;;;;;;;;;;;;2081463;28;19909;-81
2023/10/10 08:29:49;;;;;;;;;;;;;;;;;;2075223;28;19992;-81
2023/10/10 08:31:08;;;;;;;;;;;;;;;;;;2078978;28;19909;-81
2023/10/10 08:32:30;;;;;;;;;;;;;;;;;;2075657;28;19996;-81
2023/10/10 08:33:49;;;;;;;;;;;;;;;;;;2077336;28;19905;-81
2023/10/10 08:35:10;;;;;;;;;;;;;;;;;;2076651;28;19909;-81
2023/10/10 08:36:30;;;;;;;;;;;;;;;;;;2078341;28;19909;-83
2023/10/10 08:37:50;;;;;;;;;;;;;;;;;;2076935;28;19904;-80
2023/10/10 08:40:34;;;;;;;;;;;;;;;;;;2080810;28;20366;-80
2023/10/10 08:41:53;;;;;;;;;;;;;;;;;;2082209;28;19905;-80
2023/10/10 08:43:12;;;;;;;;;;;;;;;;;;2081532;28;19909;-80
2023/10/10 08:44:31;;;;;;;;;;;;;;;;;;2080689;28;19909;-79
2023/10/10 08:45:54;;;;;;;;;;;;;;;;;;2079896;28;20313;-79
2023/10/10 08:47:17;;;;;;;;;;;;;;;;;;2074780;28;19905;-80
2023/10/10 08:48:36;;;;;;;;;;;;;;;;;;2081332;28;19917;-79
2023/10/10 08:49:57;;;;;;;;;;;;;;;;;;2076089;28;19905;-80
2023/10/10 08:51:17;;;;;;;;;;;;;;;;;;2070993;28;20363;-80
2023/10/10 08:52:38;;;;;;;;;;;;;;;;;;2076690;28;19909;-80
2023/10/10 08:53:57;;;;;;;;;;;;;;;;;;2080322;28;19909;-80
2023/10/10 08:55:18;;;;;;;;;;;;;;;;;;2079828;28;19913;-80
2023/10/10 08:56:37;;;;;;;;;;;;;;;;;;2081655;28;19909;-80
2023/10/10 08:57:58;;;;;;;;;;;;;;;;;;2080552;28;20350;-81
2023/10/10 08:59:17;;;;;;;;;;;;;;;;;;2080815;28;19905;-80
2023/10/10 09:00:37;;;;;;;;;;;;;;;;;;2075016;28;19914;-79
2023/10/10 09:01:56;;;;;;;;;;;;;;;;;;2074438;28;19905;-80
2023/10/10 09:03:16;;;;;;;;;;;;;;;;;;2079222;28;20373;-81
2023/10/10 09:04:35;;;;;;;;;;;;;;;;;;2073217;28;19913;-81
2023/10/10 09:05:55;;;;;;;;;;;;;;;;;;2076148;28;19964;-81
2023/10/10 09:07:20;;;;;;;;;;;;;;;;;;2075489;28;19905;-80
2023/10/10 09:08:43;;;;;;;;;;;;;;;;;;2080043;28;19909;-80
2023/10/10 09:10:04;;;;;;;;;;;;;;;;;;2073295;28;19905;-80
2023/10/10 09:11:24;;;;;;;;;;;;;;;;;;2077670;28;19917;-80
2023/10/10 09:12:58;;;;;;;;;;;;;;;;;;2077144;28;20042;-79
2023/10/10 09:14:17;;;;;;;;;;;;;;;;;;2073673;28;20000;-79
2023/10/10 09:15:36;;;;;;;;;;;;;;;;;;2078006;28;19905;-81
2023/10/10 09:16:55;;;;;;;;;;;;;;;;;;2075939;28;19909;-80
2023/10/10 09:18:15;;;;;;;;;;;;;;;;;;2072619;28;19956;-81
2023/10/10 09:19:34;;;;;;;;;;;;;;;;;;2080774;28;19913;-81
2023/10/10 09:20:56;;;;;;;;;;;;;;;;;;2081280;28;19925;-79
2023/10/10 09:22:25;;;;;;;;;;;;;;;;;;2075842;28;19913;-80
2023/10/10 09:24:07;;;;;;;;;;;;;;;;;;2078722;28;19905;-79
2023/10/10 09:25:42;;;;;;;;;;;;;;;;;;2079327;28;19917;-80
2023/10/10 09:27:10;;;;;;;;;;;;;;;;;;2079533;28;19912;-80
2023/10/10 09:28:32;;;;;;;;;;;;;;;;;;2072856;28;20379;-79
2023/10/10 09:29:54;;;;;;;;;;;;;;;;;;2077815;28;20358;-79
2023/10/10 09:31:20;;;;;;;;;;;;;;;;;;2081048;28;19909;-79
2023/10/10 09:32:42;;;;;;;;;;;;;;;;;;2080641;28;19995;-80
2023/10/10 09:34:06;;;;;;;;;;;;;;;;;;2081035;28;19929;-79
2023/10/10 09:35:28;;;;;;;;;;;;;;;;;;2074194;28;19990;-79
2023/10/10 09:36:54;;;;;;;;;;;;;;;;;;2074988;28;19999;-79
2023/10/10 09:38:16;;;;;;;;;;;;;;;;;;2080477;28;19913;-80
2023/10/10 09:39:41;;;;;;;;;;;;;;;;;;2081426;28;20246;-80
2023/10/10 09:41:10;;;;;;;;;;;;;;;;;;2080873;28;20018;-80
2023/10/10 09:52:59;;;;;;;;;;;;;;;;;;2080470;28;19905;-81
2023/10/10 09:54:18;;;;;;;;;;;;;;;;;;2074781;28;19952;-80
2023/10/10 09:55:42;;;;;;;;;;;;;;;;;;2075542;28;19905;-79
2023/10/10 09:57:08;;;;;;;;;;;;;;;;;;2075007;28;19909;-79
2023/10/10 09:58:27;;;;;;;;;;;;;;;;;;2072852;28;20437;-79
2023/10/10 09:59:53;;;;;;;;;;;;;;;;;;2076804;28;19968;-80
2023/10/10 10:01:18;;;;;;;;;;;;;;;;;;2079177;28;19944;-79
2023/10/10 10:02:43;;;;;;;;;;;;;;;;;;2074965;28;19909;-79
2023/10/10 10:04:03;;;;;;;;;;;;;;;;;;2073054;28;19906;-80
2023/10/10 10:05:28;;;;;;;;;;;;;;;;;;2079067;28;19936;-80
2023/10/10 10:06:56;;;;;;;;;;;;;;;;;;2079051;28;19905;-81
2023/10/10 10:08:15;;;;;;;;;;;;;;;;;;2080017;28;19959;-80
2023/10/10 10:09:37;;;;;;;;;;;;;;;;;;2074092;28;19952;-80
2023/10/10 10:10:56;;;;;;;;;;;;;;;;;;2077786;28;19909;-80
2023/10/10 10:12:19;;;;;;;;;;;;;;;;;;2075392;28;19988;-79
2023/10/10 10:13:38;;;;;;;;;;;;;;;;;;2074082;28;19912;-79
2023/10/10 10:14:56;;;;;;;;;;;;;;;;;;2076271;28;19905;-80
2023/10/10 10:16:19;;;;;;;;;;;;;;;;;;2079617;28;19908;-79
2023/10/10 10:17:47;;;;;;;;;;;;;;;;;;2073173;28;20358;-80
2023/10/10 10:19:17;;;;;;;;;;;;;;;;;;2078984;28;19905;-80
2023/10/10 10:21:04;;;;;;;;;;;;;;;;;;2078736;28;19917;-80
2023/10/10 10:22:23;;;;;;;;;;;;;;;;;;2074384;28;19905;-83
2023/10/10 10:23:47;;;;;;;;;;;;;;;;;;2070176;28;19909;-80
2023/10/10 10:25:21;;;;;;;;;;;;;;;;;;2080013;28;20496;-80
2023/10/10 10:26:44;;;;;;;;;;;;;;;;;;2073952;28;19913;-80
2023/10/10 10:28:56;;;;;;;;;;;;;;;;;;2069388;28;19906;-79
2023/10/10 10:29:47;;;;;;;;;;;;;;;;;;2080177;28;19905;-80
2023/10/10 10:31:07;;;;;;;;;;;;;;;;;;2075350;28;20307;-79
2023/10/10 10:32:26;;;;;;;;;;;;;;;;;;2079249;28;19905;-79
2023/10/10 10:33:52;;;;;;;;;;;;;;;;;;2071349;28;20405;-83
2023/10/10 10:35:15;;;;;;;;;;;;;;;;;;2072061;28;19905;-82
2023/10/10 10:36:40;;;;;;;;;;;;;;;;;;2078826;28;19909;-80
2023/10/10 10:38:00;;;;;;;;;;;;;;;;;;2074561;28;20366;-81
2023/10/10 10:39:19;;;;;;;;;;;;;;;;;;2078429;28;19909;-82
2023/10/10 10:41:59;;;;;;;;;;;;;;;;;;2077435;28;19905;-81
2023/10/10 10:43:20;;;;;;;;;;;;;;;;;;2073692;28;19905;-80
2023/10/10 10:46:14;;;;;;;;;;;;;;;;;;2080312;28;20370;-81
2023/10/10 10:47:46;;;;;;;;;;;;;;;;;;2073465;28;20389;-82
2023/10/10 10:49:05;;;;;;;;;;;;;;;;;;2071716;28;20378;-82
2023/10/10 10:50:28;;;;;;;;;;;;;;;;;;2076711;28;19905;-81
2023/10/10 10:51:49;;;;;;;;;;;;;;;;;;2074997;28;19913;-81
2023/10/10 10:53:20;;;;;;;;;;;;;;;;;;2076937;28;20331;-82
2023/10/10 10:54:41;;;;;;;;;;;;;;;;;;2080204;28;19991;-81
2023/10/10 10:56:45;;;;;;;;;;;;;;;;;;2074560;28;19908;-82
2023/10/10 10:57:40;;;;;;;;;;;;;;;;;;2078523;28;19905;-82
2023/10/10 10:59:12;;;;;;;;;;;;;;;;;;2080505;28;20018;-82
2023/10/10 11:00:41;;;;;;;;;;;;;;;;;;2073858;28;20267;-82
2023/10/10 11:02:00;;;;;;;;;;;;;;;;;;2074750;28;19909;-82
2023/10/10 11:03:23;;;;;;;;;;;;;;;;;;2076816;28;19909;-81
2023/10/10 11:04:43;;;;;;;;;;;;;;;;;;2071965;28;19909;-81
2023/10/10 11:06:06;;;;;;;;;;;;;;;;;;2077199;28;19932;-82
2023/10/10 11:07:28;;;;;;;;;;;;;;;;;;2080368;28;19914;-82
2023/10/10 11:10:09;;;;;;;;;;;;;;;;;;2080643;28;20311;-82
2023/10/10 11:12:50;;;;;;;;;;;;;;;;;;2080031;28;20282;-82
2023/10/10 11:15:38;;;;;;;;;;;;;;;;;;2080471;28;19905;-82
2023/10/10 11:16:57;;;;;;;;;;;;;;;;;;2082976;28;19909;-81
2023/10/10 11:18:24;;;;;;;;;;;;;;;;;;2075484;28;20477;-84
2023/10/10 11:19:43;;;;;;;;;;;;;;;;;;2076549;28;19906;-82
2023/10/10 11:21:06;;;;;;;;;;;;;;;;;;2081124;28;20382;-82
2023/10/10 11:22:41;;;;;;;;;;;;;;;;;;2083030;28;20351;-81
2023/10/10 11:23:59;;;;;;;;;;;;;;;;;;2076260;28;19913;-82
2023/10/10 11:25:27;;;;;;;;;;;;;;;;;;2073932;28;20355;-82
2023/10/10 11:26:46;;;;;;;;;;;;;;;;;;2080937;28;19905;-82
2023/10/10 11:28:04;;;;;;;;;;;;;;;;;;2075294;28;19909;-83
2023/10/10 11:29:29;;;;;;;;;;;;;;;;;;2075588;28;19914;-82
2023/10/10 11:30:49;;;;;;;;;;;;;;;;;;2079210;28;19909;-82
2023/10/10 11:32:08;;;;;;;;;;;;;;;;;;2082062;28;19908;-82
2023/10/10 11:33:27;;;;;;;;;;;;;;;;;;2076541;28;19909;-82
2023/10/10 11:34:49;;;;;;;;;;;;;;;;;;2080258;28;20254;-82
2023/10/10 11:36:08;;;;;;;;;;;;;;;;;;2081754;28;19905;-82
2023/10/10 11:37:31;;;;;;;;;;;;;;;;;;2081494;28;20274;-81
2023/10/10 11:38:56;;;;;;;;;;;;;;;;;;2082679;28;19905;-82
2023/10/10 11:41:45;;;;;;;;;;;;;;;;;;2082407;28;19905;-82
2023/10/10 11:43:04;;;;;;;;;;;;;;;;;;2076642;28;19913;-82
2023/10/10 11:44:23;;;;;;;;;;;;;;;;;;2076197;28;19909;-82
2023/10/10 11:45:51;;;;;;;;;;;;;;;;;;2079682;28;19913;-81